Time;durP1;ratioP1;P1;durP2;ratioP2;P2;SDS_P1;SDS_P2;PMS_P1;PMS_P2;Temp;Humidity;BMP_temperature;BMP_pressure;BME280_temperature;BME280_humidity;BME280_pressure;Samples;Min_cycle;Max_cycle;Signal;HPM_P1;HPM_P2
2021/06/29 00:00:00;;;;;;;10.58;9.45;;;24.90;75.50;;;;;;1862761;76;21041;-48
2021/06/29 00:02:30;;;;;;;10.68;9.45;;;24.90;75.50;;;;;;1863066;77;21033;-49
2021/06/29 00:04:59;;;;;;;11.73;9.55;;;24.90;75.50;;;;;;1862646;77;21081;-48
2021/06/29 00:07:28;;;;;;;10.75;9.63;;;24.80;75.50;;;;;;1862660;77;21045;-48
2021/06/29 00:09:57;;;;;;;16.00;9.35;;;24.80;75.40;;;;;;1862615;76;21041;-51
2021/06/29 00:12:27;;;;;;;11.28;9.45;;;24.80;75.20;;;;;;1862765;77;21018;-49
2021/06/29 00:14:56;;;;;;;14.28;9.65;;;24.70;75.30;;;;;;1862766;76;21148;-50
2021/06/29 00:17:26;;;;;;;15.18;9.08;;;24.60;75.40;;;;;;1854584;75;21165;-49
2021/06/29 00:19:55;;;;;;;10.82;8.68;;;24.60;75.60;;;;;;1853676;76;21042;-49
2021/06/29 00:22:24;;;;;;;15.38;9.30;;;24.60;75.60;;;;;;1853694;77;21078;-50
2021/06/29 00:24:54;;;;;;;12.10;9.50;;;24.70;75.60;;;;;;1853607;77;21038;-51
2021/06/29 00:27:23;;;;;;;12.10;9.30;;;24.70;75.60;;;;;;1853664;77;21054;-48
2021/06/29 00:29:52;;;;;;;12.00;9.43;;;24.70;75.60;;;;;;1853635;77;21066;-47
2021/06/29 00:32:22;;;;;;;10.05;8.75;;;24.70;75.60;;;;;;1853600;77;21113;-51
2021/06/29 00:34:51;;;;;;;14.45;9.13;;;24.70;75.60;;;;;;1853649;77;21448;-48
2021/06/29 00:37:21;;;;;;;12.75;9.60;;;24.70;75.70;;;;;;1853690;77;21046;-49
2021/06/29 00:39:50;;;;;;;11.88;8.33;;;24.70;75.80;;;;;;1853652;77;21045;-51
2021/06/29 00:42:20;;;;;;;13.93;9.30;;;24.70;75.80;;;;;;1853740;77;21175;-48
2021/06/29 00:44:49;;;;;;;10.63;8.98;;;24.70;75.90;;;;;;1853787;77;21093;-51
2021/06/29 00:47:19;;;;;;;11.20;10.08;;;24.70;75.90;;;;;;1853774;77;21046;-49
2021/06/29 00:49:49;;;;;;;12.53;11.20;;;24.80;76.00;;;;;;1853617;76;21046;-48
2021/06/29 00:52:20;;;;;;;15.58;10.35;;;24.70;75.60;;;;;;1853820;77;21085;-51
2021/06/29 00:54:51;;;;;;;12.55;10.72;;;24.70;75.50;;;;;;1853666;77;21050;-49
2021/06/29 00:57:20;;;;;;;12.95;11.55;;;24.50;75.50;;;;;;1853754;77;21050;-52
2021/06/29 00:59:50;;;;;;;13.50;11.08;;;24.40;75.70;;;;;;1853662;77;21046;-50
2021/06/29 01:02:19;;;;;;;15.85;10.93;;;24.30;76.00;;;;;;1853669;77;21042;-50
2021/06/29 01:04:49;;;;;;;15.28;10.70;;;24.10;76.30;;;;;;1853636;77;21034;-48
2021/06/29 01:07:18;;;;;;;11.60;10.23;;;24.10;76.90;;;;;;1853688;77;21038;-50
2021/06/29 01:09:48;;;;;;;12.93;10.78;;;24.10;77.20;;;;;;1853604;77;21125;-49
2021/06/29 01:12:18;;;;;;;11.75;10.28;;;24.10;77.20;;;;;;1853747;77;21042;-49
2021/06/29 01:14:47;;;;;;;16.82;11.28;;;24.20;77.30;;;;;;1853619;77;21018;-50
2021/06/29 01:17:16;;;;;;;15.08;11.45;;;24.20;77.20;;;;;;1858822;75;21123;-47
2021/06/29 01:19:47;;;;;;;13.38;11.05;;;24.20;77.00;;;;;;1862568;77;21037;-49
2021/06/29 01:22:17;;;;;;;16.23;11.22;;;24.10;77.00;;;;;;1862745;77;21084;-48
2021/06/29 01:24:52;;;;;;;15.40;10.82;;;24.10;76.90;;;;;;1862597;77;21100;-49
2021/06/29 01:27:35;;;;;;;17.30;11.78;;;24.10;76.90;;;;;;1862776;77;21077;-49
2021/06/29 01:32:32;;;;;;;15.25;11.22;;;23.90;77.20;;;;;;1862687;77;21096;-50
2021/06/29 01:35:06;;;;;;;19.52;12.10;;;23.70;77.20;;;;;;1862602;77;21092;-48
2021/06/29 01:37:36;;;;;;;17.67;12.50;;;23.70;77.40;;;;;;1862716;76;21099;-48
2021/06/29 01:40:21;;;;;;;13.22;11.90;;;23.60;77.70;;;;;;1862560;77;21053;-50
2021/06/29 01:42:53;;;;;;;13.13;10.98;;;23.50;77.80;;;;;;1861953;75;21086;-49
2021/06/29 01:45:22;;;;;;;15.68;11.08;;;23.50;78.20;;;;;;1862648;77;21598;-47
2021/06/29 01:47:54;;;;;;;20.12;11.90;;;23.50;78.50;;;;;;1862693;76;21186;-47
2021/06/29 01:50:23;;;;;;;11.85;10.58;;;23.50;78.70;;;;;;1862592;76;21104;-48
2021/06/29 01:52:57;;;;;;;14.87;11.05;;;23.50;78.50;;;;;;1862547;76;21018;-50
2021/06/29 01:55:27;;;;;;;12.25;10.75;;;23.50;78.50;;;;;;1862765;77;21049;-51
2021/06/29 01:57:59;;;;;;;11.95;10.78;;;23.60;78.50;;;;;;1862649;77;21132;-49
2021/06/29 02:00:28;;;;;;;25.65;11.50;;;23.60;78.40;;;;;;1862613;77;21014;-51
2021/06/29 02:02:58;;;;;;;12.65;10.93;;;23.60;78.30;;;;;;1862629;77;21022;-49
2021/06/29 02:05:28;;;;;;;14.43;10.23;;;23.70;78.50;;;;;;1862636;77;21030;-51
2021/06/29 02:07:57;;;;;;;11.80;10.03;;;23.70;78.60;;;;;;1862550;77;21095;-50
2021/06/29 02:10:27;;;;;;;16.90;10.43;;;23.80;78.60;;;;;;1862569;77;21053;-51
2021/06/29 02:12:57;;;;;;;17.65;11.28;;;23.80;78.30;;;;;;1862653;77;21136;-51
2021/06/29 02:15:27;;;;;;;14.83;10.58;;;23.80;78.00;;;;;;1862729;76;21178;-50
2021/06/29 02:17:56;;;;;;;15.80;10.43;;;23.80;78.00;;;;;;1862683;75;21095;-51
2021/06/29 02:20:26;;;;;;;12.37;10.45;;;23.70;78.00;;;;;;1862838;77;21057;-48
2021/06/29 02:22:56;;;;;;;10.45;9.25;;;23.70;78.20;;;;;;1862716;77;21092;-50
2021/06/29 02:25:25;;;;;;;12.63;10.28;;;23.60;78.50;;;;;;1862709;76;21013;-48
2021/06/29 02:27:54;;;;;;;10.32;9.05;;;23.70;78.70;;;;;;1862814;76;21046;-51
2021/06/29 02:30:24;;;;;;;9.50;8.53;;;23.80;78.70;;;;;;1862775;77;21042;-51
2021/06/29 02:32:54;;;;;;;11.95;9.33;;;23.90;78.70;;;;;;1862642;77;21021;-49
2021/06/29 02:35:23;;;;;;;14.00;9.60;;;24.00;78.50;;;;;;1862900;77;21085;-51
2021/06/29 02:37:52;;;;;;;12.50;9.90;;;24.10;78.20;;;;;;1862770;76;21202;-50
2021/06/29 02:40:22;;;;;;;12.13;8.93;;;24.10;78.10;;;;;;1862775;77;21104;-50
2021/06/29 02:42:52;;;;;;;12.53;9.03;;;24.10;78.20;;;;;;1863125;76;22230;-48
2021/06/29 02:45:22;;;;;;;12.90;8.60;;;24.20;78.10;;;;;;1862779;77;21103;-51
2021/06/29 02:47:51;;;;;;;16.35;10.30;;;24.30;78.00;;;;;;1862750;76;21050;-52
2021/06/29 02:50:21;;;;;;;14.33;9.43;;;24.30;77.80;;;;;;1862801;77;21034;-51
2021/06/29 02:52:50;;;;;;;9.30;8.40;;;24.40;77.70;;;;;;1862610;76;21049;-51
2021/06/29 02:55:19;;;;;;;11.60;9.38;;;24.40;77.50;;;;;;1862674;76;21017;-50
2021/06/29 02:57:49;;;;;;;12.30;8.78;;;24.50;77.50;;;;;;1862674;77;21049;-50
2021/06/29 03:00:20;;;;;;;24.50;10.68;;;24.50;77.60;;;;;;1862787;77;21049;-51
2021/06/29 03:02:50;;;;;;;14.38;9.38;;;24.50;77.70;;;;;;1862704;76;21094;-50
2021/06/29 03:05:20;;;;;;;13.28;9.35;;;24.50;77.80;;;;;;1862682;76;21021;-51
2021/06/29 03:07:49;;;;;;;11.25;8.50;;;24.50;77.80;;;;;;1862734;77;21468;-51
2021/06/29 03:10:18;;;;;;;22.07;9.08;;;24.60;77.90;;;;;;1862880;77;21108;-51
2021/06/29 03:12:48;;;;;;;11.80;8.40;;;24.70;78.50;;;;;;1862583;76;21041;-50
2021/06/29 03:15:17;;;;;;;16.00;8.00;;;24.80;77.70;;;;;;1862703;76;21038;-48
2021/06/29 03:17:50;;;;;;;13.32;7.50;;;24.90;78.00;;;;;;1862669;75;21151;-52
2021/06/29 03:20:18;;;;;;;10.23;8.53;;;25.00;77.30;;;;;;1862615;77;21587;-51
2021/06/29 03:22:47;;;;;;;11.20;7.97;;;25.10;77.30;;;;;;1862672;77;21045;-51
2021/06/29 03:25:17;;;;;;;13.72;8.88;;;25.10;77.20;;;;;;1862932;77;21108;-51
2021/06/29 03:27:47;;;;;;;10.15;8.65;;;25.20;77.10;;;;;;1862792;77;21120;-52
2021/06/29 03:30:17;;;;;;;11.88;8.03;;;25.30;77.00;;;;;;1862676;77;21098;-51
2021/06/29 03:32:46;;;;;;;14.58;7.95;;;25.40;76.90;;;;;;1862569;77;21018;-52
2021/06/29 03:35:16;;;;;;;15.28;9.55;;;25.40;76.70;;;;;;1862714;77;21069;-48
2021/06/29 03:37:46;;;;;;;12.58;8.45;;;25.50;76.50;;;;;;1862715;77;21061;-49
2021/06/29 03:40:16;;;;;;;13.15;8.58;;;25.60;76.30;;;;;;1862789;77;21111;-51
2021/06/29 03:42:45;;;;;;;48.75;10.98;;;25.60;76.10;;;;;;1862745;76;21108;-51
2021/06/29 03:45:15;;;;;;;22.42;9.80;;;25.60;76.00;;;;;;1862666;77;21103;-51
2021/06/29 03:47:43;;;;;;;10.15;7.97;;;25.60;76.10;;;;;;1862711;77;21085;-51
2021/06/29 03:50:13;;;;;;;12.35;8.65;;;25.70;76.30;;;;;;1862827;77;21042;-48
2021/06/29 03:52:42;;;;;;;10.70;7.65;;;25.80;76.20;;;;;;1862571;77;21111;-48
2021/06/29 03:55:12;;;;;;;11.95;8.68;;;25.80;76.00;;;;;;1862812;77;21107;-51
2021/06/29 03:57:41;;;;;;;8.45;7.08;;;26.00;75.80;;;;;;1862644;76;21049;-50
2021/06/29 04:00:11;;;;;;;8.55;6.75;;;26.20;75.60;;;;;;1862791;77;21041;-47
2021/06/29 04:02:41;;;;;;;9.60;6.75;;;26.20;75.20;;;;;;1862755;77;21049;-49
2021/06/29 04:05:11;;;;;;;12.95;6.15;;;26.30;74.90;;;;;;1862681;77;21107;-51
2021/06/29 04:07:40;;;;;;;13.45;7.10;;;26.40;74.90;;;;;;1862650;77;21500;-51
2021/06/29 04:10:10;;;;;;;8.80;6.37;;;26.50;74.80;;;;;;1862715;77;21129;-52
2021/06/29 04:12:39;;;;;;;7.65;6.90;;;26.60;74.70;;;;;;1862676;77;21119;-50
2021/06/29 04:15:10;;;;;;;14.65;6.83;;;26.60;74.50;;;;;;1862744;77;21107;-48
2021/06/29 04:17:39;;;;;;;13.90;7.35;;;26.70;74.40;;;;;;1862702;77;21050;-48
2021/06/29 04:20:10;;;;;;;12.37;6.03;;;26.80;74.30;;;;;;1869924;75;21041;-51
2021/06/29 04:22:39;;;;;;;7.42;5.83;;;26.80;74.10;;;;;;1870929;77;21018;-48
2021/06/29 04:25:09;;;;;;;13.18;6.67;;;26.90;74.30;;;;;;1870857;77;20990;-48
2021/06/29 04:27:38;;;;;;;14.38;6.65;;;26.90;73.90;;;;;;1870900;77;21076;-49
2021/06/29 04:30:09;;;;;;;11.25;5.97;;;27.00;74.00;;;;;;1870932;77;21014;-50
2021/06/29 04:32:38;;;;;;;7.55;5.85;;;27.00;73.80;;;;;;1870814;77;21088;-50
2021/06/29 04:35:08;;;;;;;10.32;6.15;;;27.00;73.70;;;;;;1870796;77;21009;-50
2021/06/29 04:37:38;;;;;;;8.05;6.87;;;27.10;73.50;;;;;;1870815;77;21013;-50
2021/06/29 04:40:08;;;;;;;11.25;6.72;;;27.10;73.50;;;;;;1870822;77;21092;-48
2021/06/29 04:42:37;;;;;;;12.58;6.97;;;27.00;73.60;;;;;;1870802;76;21026;-50
2021/06/29 04:45:08;;;;;;;11.08;6.60;;;27.00;73.70;;;;;;1870849;77;21017;-48
2021/06/29 04:47:44;;;;;;;10.10;6.67;;;27.00;73.90;;;;;;1870763;77;21010;-47
2021/06/29 04:50:08;;;;;;;9.28;6.75;;;27.00;74.00;;;;;;1870056;77;20990;-48
2021/06/29 04:52:37;;;;;;;8.83;7.15;;;27.00;74.10;;;;;;1870780;77;21061;-51
2021/06/29 04:55:07;;;;;;;11.85;6.47;;;27.00;74.20;;;;;;1870798;77;21068;-50
2021/06/29 04:57:36;;;;;;;11.05;7.30;;;27.00;74.40;;;;;;1870885;77;21158;-50
2021/06/29 05:00:09;;;;;;;13.22;7.53;;;27.10;74.40;;;;;;1870785;77;21080;-48
2021/06/29 05:02:39;;;;;;;7.85;6.62;;;27.10;74.40;;;;;;1870653;76;21026;-48
2021/06/29 05:05:09;;;;;;;7.85;6.60;;;27.20;74.50;;;;;;1870818;77;21092;-51
2021/06/29 05:07:40;;;;;;;10.53;7.37;;;27.20;74.20;;;;;;1870782;77;21022;-51
2021/06/29 05:10:10;;;;;;;8.60;7.28;;;27.30;74.10;;;;;;1870803;77;21010;-47
2021/06/29 05:12:40;;;;;;;8.10;6.87;;;27.40;74.20;;;;;;1870688;77;21049;-50
2021/06/29 05:15:10;;;;;;;11.50;7.92;;;27.40;74.10;;;;;;1870851;77;20986;-52
2021/06/29 05:17:39;;;;;;;12.82;7.35;;;27.50;73.80;;;;;;1870839;77;20986;-50
2021/06/29 05:20:09;;;;;;;12.63;7.78;;;27.50;73.90;;;;;;1885273;76;21099;-48
2021/06/29 05:22:39;;;;;;;9.95;7.95;;;27.60;73.90;;;;;;1891978;76;21017;-49
2021/06/29 05:25:09;;;;;;;12.73;9.20;;;27.60;73.80;;;;;;1891997;76;20985;-51
2021/06/29 05:27:40;;;;;;;12.23;7.97;;;27.60;73.70;;;;;;1891824;76;21005;-49
2021/06/29 05:30:10;;;;;;;21.42;9.98;;;27.60;73.70;;;;;;1891858;76;21091;-51
2021/06/29 05:32:40;;;;;;;11.93;7.72;;;27.70;73.90;;;;;;1891936;76;21009;-51
2021/06/29 05:35:10;;;;;;;11.95;7.83;;;27.90;73.80;;;;;;1891948;76;20977;-52
2021/06/29 05:37:40;;;;;;;10.75;7.83;;;28.00;73.50;;;;;;1891905;76;21009;-49
2021/06/29 05:40:09;;;;;;;12.45;7.55;;;28.20;72.40;;;;;;1892058;76;21006;-49
2021/06/29 05:42:39;;;;;;;10.05;7.65;;;28.30;71.70;;;;;;1891984;76;21104;-48
2021/06/29 05:45:12;;;;;;;9.95;8.63;;;28.40;71.50;;;;;;1891944;76;21091;-50
2021/06/29 05:47:40;;;;;;;9.70;7.80;;;28.50;69.90;;;;;;1892036;76;21013;-48
2021/06/29 05:50:12;;;;;;;8.75;7.72;;;28.60;68.70;;;;;;1892101;76;21017;-48
2021/06/29 05:52:42;;;;;;;12.73;8.70;;;28.70;68.10;;;;;;1891973;76;20985;-49
2021/06/29 05:55:12;;;;;;;12.45;10.05;;;28.80;67.90;;;;;;1892133;76;21013;-51
2021/06/29 05:57:42;;;;;;;11.18;10.03;;;28.90;65.70;;;;;;1892084;76;20993;-49
2021/06/29 06:00:19;;;;;;;11.93;10.38;;;28.90;66.00;;;;;;1892178;76;21021;-48
2021/06/29 06:02:48;;;;;;;10.40;9.45;;;29.00;65.60;;;;;;1892131;76;21505;-51
2021/06/29 06:05:17;;;;;;;10.18;9.18;;;29.00;64.90;;;;;;1892176;76;21498;-51
2021/06/29 06:07:46;;;;;;;12.55;9.20;;;29.00;65.10;;;;;;1892151;76;21024;-50
2021/06/29 06:10:16;;;;;;;10.65;8.70;;;28.90;64.80;;;;;;1892058;76;20995;-49
2021/06/29 06:12:45;;;;;;;35.10;23.02;;;28.90;64.70;;;;;;1892075;76;21096;-50
2021/06/29 06:15:15;;;;;;;13.53;10.85;;;28.80;64.40;;;;;;1892122;76;21487;-51
2021/06/29 06:17:44;;;;;;;29.60;21.27;;;28.70;64.40;;;;;;1892131;76;21079;-48
2021/06/29 06:20:14;;;;;;;15.65;12.15;;;28.70;64.60;;;;;;1878282;76;21124;-47
2021/06/29 06:22:44;;;;;;;11.90;8.40;;;28.60;64.90;;;;;;1862667;77;21128;-49
2021/06/29 06:25:13;;;;;;;10.15;8.15;;;28.50;64.90;;;;;;1862727;77;21018;-48
2021/06/29 06:27:43;;;;;;;11.15;9.30;;;28.50;64.90;;;;;;1862657;76;21030;-48
2021/06/29 06:30:14;;;;;;;11.68;8.08;;;28.60;65.10;;;;;;1862814;77;21101;-49
2021/06/29 06:32:43;;;;;;;11.03;8.50;;;28.70;64.90;;;;;;1862669;77;21046;-48
2021/06/29 06:35:13;;;;;;;11.30;8.03;;;28.90;64.90;;;;;;1862770;77;21186;-49
2021/06/29 06:37:42;;;;;;;19.32;9.78;;;29.10;64.50;;;;;;1862835;76;21033;-50
2021/06/29 06:40:12;;;;;;;9.33;8.38;;;29.20;63.80;;;;;;1862664;77;21037;-51
2021/06/29 06:42:42;;;;;;;11.50;8.70;;;29.20;63.10;;;;;;1862697;77;21104;-49
2021/06/29 06:45:12;;;;;;;11.60;9.03;;;29.20;63.30;;;;;;1862816;77;21041;-50
2021/06/29 06:47:41;;;;;;;36.65;6.62;;;29.10;63.90;;;;;;1862713;77;21017;-52
2021/06/29 06:50:11;;;;;;;6.62;4.55;;;28.90;63.90;;;;;;1862826;77;21085;-52
2021/06/29 06:52:41;;;;;;;7.12;3.35;;;27.90;62.80;;;;;;1862668;77;21074;-51
2021/06/29 06:55:11;;;;;;;3.90;2.25;;;26.70;64.20;;;;;;1862742;77;21041;-51
2021/06/29 06:57:45;;;;;;;2.85;2.10;;;25.80;65.00;;;;;;1862746;77;21042;-49
2021/06/29 07:00:12;;;;;;;8.10;4.45;;;25.20;65.90;;;;;;1861317;77;21468;-49
2021/06/29 07:02:41;;;;;;;10.68;4.28;;;24.90;67.40;;;;;;1862641;77;21045;-51
2021/06/29 07:05:11;;;;;;;12.73;7.10;;;24.80;68.80;;;;;;1862651;77;21096;-50
2021/06/29 07:07:41;;;;;;;9.65;6.08;;;24.70;69.80;;;;;;1862753;77;21112;-49
2021/06/29 07:10:11;;;;;;;10.65;6.95;;;24.60;70.80;;;;;;1862713;77;21042;-50
2021/06/29 07:12:41;;;;;;;10.28;5.78;;;24.50;72.30;;;;;;1862631;77;21087;-51
2021/06/29 07:15:11;;;;;;;9.15;6.05;;;24.60;73.10;;;;;;1862726;77;21105;-49
2021/06/29 07:17:40;;;;;;;9.28;5.83;;;24.60;73.50;;;;;;1862853;77;21104;-51
2021/06/29 07:20:10;;;;;;;10.93;6.05;;;24.60;74.10;;;;;;1864161;75;21108;-47
2021/06/29 07:22:40;;;;;;;9.28;5.87;;;24.50;74.60;;;;;;1871036;76;21010;-48
2021/06/29 07:25:10;;;;;;;6.62;5.62;;;24.50;75.60;;;;;;1870781;77;21010;-50
2021/06/29 07:27:40;;;;;;;7.40;6.10;;;24.60;76.30;;;;;;1870873;77;21080;-49
2021/06/29 07:30:10;;;;;;;7.67;6.75;;;24.70;76.90;;;;;;1870918;77;21009;-48
2021/06/29 07:32:42;;;;;;;10.10;8.23;;;24.90;77.30;;;;;;1870945;77;21014;-50
2021/06/29 07:35:11;;;;;;;10.68;7.17;;;25.10;77.80;;;;;;1871102;77;21460;-50
2021/06/29 07:37:41;;;;;;;8.08;6.90;;;25.30;77.50;;;;;;1870874;77;21009;-50
2021/06/29 07:40:11;;;;;;;10.58;6.67;;;25.50;77.50;;;;;;1871055;76;21010;-49
2021/06/29 07:42:40;;;;;;;7.30;6.28;;;25.70;77.70;;;;;;1870842;77;21033;-49
2021/06/29 07:45:10;;;;;;;7.30;5.90;;;25.70;77.60;;;;;;1871148;77;21010;-47
2021/06/29 07:47:40;;;;;;;11.03;6.30;;;25.80;77.60;;;;;;1870891;77;21089;-48
2021/06/29 07:50:11;;;;;;;6.83;5.85;;;25.80;77.40;;;;;;1870798;77;21005;-47
2021/06/29 07:52:40;;;;;;;7.85;6.42;;;25.70;77.20;;;;;;1870857;77;20998;-50
2021/06/29 07:55:10;;;;;;;9.08;6.53;;;25.70;77.30;;;;;;1870583;77;21018;-48
2021/06/29 07:57:39;;;;;;;8.98;6.15;;;25.70;77.60;;;;;;1870777;77;21073;-52
2021/06/29 08:00:10;;;;;;;8.48;6.40;;;25.70;77.90;;;;;;1871078;77;20986;-50
2021/06/29 08:02:42;;;;;;;;;;;25.70;78.00;;;;;;1873527;77;21087;-50
2021/06/29 08:05:11;;;;;;;9.10;7.33;;;25.70;78.30;;;;;;1870943;77;20129;-48
2021/06/29 08:07:41;;;;;;;9.45;6.80;;;25.60;77.90;;;;;;1870793;77;21014;-50
2021/06/29 08:10:11;;;;;;;10.45;8.05;;;25.60;78.10;;;;;;1870886;77;21068;-50
2021/06/29 08:12:41;;;;;;;10.55;8.05;;;25.50;78.30;;;;;;1870977;77;21127;-47
2021/06/29 08:15:11;;;;;;;8.88;7.70;;;25.50;78.50;;;;;;1870836;77;21092;-49
2021/06/29 08:17:41;;;;;;;8.70;7.80;;;25.50;78.70;;;;;;1870895;77;21177;-47
2021/06/29 08:20:11;;;;;;;9.25;8.25;;;25.50;78.70;;;;;;1870753;77;21083;-48
2021/06/29 08:22:41;;;;;;;10.20;7.30;;;25.40;78.50;;;;;;1891091;76;21111;-51
2021/06/29 08:25:12;;;;;;;10.08;7.47;;;25.40;78.70;;;;;;1891394;76;21088;-51
2021/06/29 08:27:41;;;;;;;8.33;7.45;;;25.40;78.80;;;;;;1891229;76;21088;-46
2021/06/29 08:30:13;;;;;;;11.53;8.35;;;25.40;78.90;;;;;;1891717;76;21025;-51
2021/06/29 08:32:42;;;;;;;10.95;9.78;;;25.50;78.80;;;;;;1891593;76;21010;-49
2021/06/29 08:35:12;;;;;;;13.85;6.50;;;25.40;78.30;;;;;;1891661;76;21085;-47
2021/06/29 08:37:46;;;;;;;9.85;6.30;;;25.40;77.80;;;;;;1893574;76;21057;-47
2021/06/29 08:40:16;;;;;;;9.33;8.20;;;25.30;78.00;;;;;;1873875;76;21609;-49
2021/06/29 08:42:45;;;;;;;8.38;7.22;;;25.20;78.20;;;;;;1893692;76;21081;-51
2021/06/29 08:45:17;;;;;;;9.45;6.28;;;25.30;78.30;;;;;;1893580;76;21041;-49
2021/06/29 08:47:47;;;;;;;8.80;5.45;;;25.40;78.80;;;;;;1893640;76;21059;-51
2021/06/29 08:50:18;;;;;;;9.20;7.03;;;25.60;78.80;;;;;;1893735;76;21062;-51
2021/06/29 08:52:47;;;;;;;7.67;5.67;;;25.80;78.70;;;;;;1893823;75;21089;-49
2021/06/29 08:55:17;;;;;;;7.53;5.85;;;26.00;78.50;;;;;;1893545;76;21095;-51
2021/06/29 08:57:46;;;;;;;6.22;5.60;;;26.20;77.30;;;;;;1893883;76;21050;-47
2021/06/29 09:00:16;;;;;;;8.15;5.72;;;26.30;75.90;;;;;;1893395;75;21081;-47
2021/06/29 09:02:46;;;;;;;11.90;7.03;;;26.30;74.90;;;;;;1892262;76;21066;-48
2021/06/29 09:05:31;;;;;;;7.92;5.60;;;26.30;75.30;;;;;;1893053;76;21088;-48
2021/06/29 09:08:09;;;;;;;10.93;6.08;;;26.30;72.60;;;;;;1893610;76;21081;-49
2021/06/29 09:10:40;;;;;;;10.18;6.25;;;26.30;72.90;;;;;;1892792;75;21042;-46
2021/06/29 09:13:11;;;;;;;13.18;6.05;;;26.30;73.80;;;;;;1893554;75;21002;-46
2021/06/29 09:15:44;;;;;;;12.50;5.50;;;26.30;73.20;;;;;;1893383;74;21151;-48
2021/06/29 09:18:28;;;;;;;7.83;5.97;;;26.30;73.10;;;;;;1893813;76;21034;-49
2021/06/29 09:21:00;;;;;;;8.95;7.15;;;26.30;74.20;;;;;;1893687;75;21100;-50
2021/06/29 09:23:38;;;;;;;7.35;6.58;;;26.40;75.70;;;;;;1893843;76;21049;-50
2021/06/29 09:26:15;;;;;;;6.20;4.70;;;26.30;75.90;;;;;;1894167;76;21099;-49
2021/06/29 09:28:50;;;;;;;5.97;4.87;;;26.20;74.40;;;;;;1894127;76;21061;-48
2021/06/29 09:31:19;;;;;;;;;;;26.20;73.80;;;;;;1896778;75;21034;-47
2021/06/29 09:33:54;;;;;;;6.78;5.70;;;26.20;73.30;;;;;;1893838;76;20106;-47
2021/06/29 09:36:26;;;;;;;5.30;4.78;;;26.20;73.80;;;;;;1893897;75;21003;-47
2021/06/29 09:38:57;;;;;;;7.53;5.33;;;26.20;71.80;;;;;;1894091;76;21140;-51
2021/06/29 09:41:28;;;;;;;6.67;4.10;;;26.20;72.40;;;;;;1893963;76;21038;-48
2021/06/29 09:44:06;;;;;;;10.50;4.78;;;26.10;71.90;;;;;;1894051;74;21543;-45
2021/06/29 09:46:37;;;;;;;8.13;4.70;;;26.10;71.70;;;;;;1886591;74;21347;-45
2021/06/29 09:49:14;;;;;;;5.25;4.53;;;26.10;69.90;;;;;;1894031;76;21050;-47
2021/06/29 09:51:50;;;;;;;11.08;5.70;;;26.00;70.60;;;;;;1893975;76;21086;-47
2021/06/29 09:54:21;;;;;;;14.28;6.12;;;25.90;72.00;;;;;;1893689;75;20999;-48
2021/06/29 10:00:47;;;;;;;9.45;6.40;;;25.80;73.20;;;;;;2054256;70;27831;-47
2021/06/29 10:03:35;;;;;;;13.68;6.53;;;25.70;75.40;;;;;;2012169;70;21537;-48
2021/06/29 10:12:04;;;;;;;12.00;6.87;;;25.60;76.90;;;;;;1955974;73;26200;-57
2021/06/29 10:14:35;;;;;;;11.63;6.87;;;25.60;77.70;;;;;;1916048;75;21070;-57
2021/06/29 10:17:09;;;;;;;10.38;7.60;;;25.50;77.80;;;;;;1916763;74;21023;-60
2021/06/29 10:19:48;;;;;;;14.68;7.25;;;25.40;78.80;;;;;;1916850;74;21400;-56
2021/06/29 10:22:06;;;;;;;14.40;6.72;;;25.40;78.50;;;;;;1913638;74;21050;-54
2021/06/29 10:24:37;;;;;;;9.95;6.70;;;25.40;78.60;;;;;;1916527;75;21127;-57
2021/06/29 10:27:08;;;;;;;9.20;6.50;;;25.40;78.80;;;;;;1880361;76;21073;-57
2021/06/29 10:29:38;;;;;;;8.25;6.80;;;25.40;78.80;;;;;;1864617;77;21032;-58
2021/06/29 10:32:10;;;;;;;8.78;6.70;;;25.40;78.80;;;;;;1864594;77;21153;-57
2021/06/29 10:34:40;;;;;;;6.80;6.10;;;25.50;78.80;;;;;;1865107;77;21125;-56
2021/06/29 10:37:09;;;;;;;10.45;6.37;;;25.50;78.70;;;;;;1864681;77;21039;-56
2021/06/29 10:39:39;;;;;;;9.88;5.70;;;25.50;78.60;;;;;;1864843;77;21105;-56
2021/06/29 10:42:16;;;;;;;9.20;6.05;;;25.60;78.60;;;;;;1865083;77;21102;-56
2021/06/29 10:44:53;;;;;;;10.60;6.53;;;25.70;78.90;;;;;;1864995;77;21059;-55
2021/06/29 10:47:25;;;;;;;9.35;5.72;;;25.80;79.00;;;;;;1864692;77;21103;-54
2021/06/29 10:49:55;;;;;;;30.92;25.17;;;25.90;79.00;;;;;;1865096;77;21141;-57
2021/06/29 10:52:34;;;;;;;9.23;7.53;;;26.00;78.90;;;;;;1864921;77;21115;-54
2021/06/29 10:55:23;;;;;;;9.03;6.28;;;26.00;79.20;;;;;;1864226;77;21156;-55
2021/06/29 10:57:55;;;;;;;9.25;7.62;;;26.00;79.20;;;;;;1865042;77;21043;-55
2021/06/29 11:00:26;;;;;;;11.00;8.75;;;26.10;79.90;;;;;;1864936;77;21079;-53
2021/06/29 11:03:12;;;;;;;13.28;7.80;;;26.20;80.70;;;;;;1864772;77;21614;-50
2021/06/29 11:05:44;;;;;;;9.53;6.58;;;26.40;80.50;;;;;;1865085;77;21152;-53
2021/06/29 11:08:16;;;;;;;10.68;5.83;;;26.60;81.20;;;;;;1864875;77;21118;-56
2021/06/29 11:10:48;;;;;;;7.65;5.05;;;26.70;80.20;;;;;;1862213;77;21107;-56
2021/06/29 11:13:20;;;;;;;6.62;5.12;;;26.80;79.40;;;;;;1905060;75;21097;-54
2021/06/29 11:15:57;;;;;;;7.78;5.30;;;27.00;78.00;;;;;;1904928;75;21066;-55
2021/06/29 11:18:48;;;;;;;5.20;4.50;;;27.00;77.40;;;;;;1905116;75;21086;-56
2021/06/29 11:21:27;;;;;;;7.17;6.53;;;27.10;76.40;;;;;;1903790;74;21043;-56
2021/06/29 11:23:57;;;;;;;7.85;4.90;;;27.20;75.90;;;;;;1904318;74;21087;-56
2021/06/29 11:26:27;;;;;;;8.23;5.40;;;27.20;75.10;;;;;;1904288;74;21071;-57
2021/06/29 11:29:09;;;;;;;7.08;5.28;;;27.20;75.30;;;;;;1904571;75;21129;-57
2021/06/29 11:31:38;;;;;;;5.87;5.28;;;27.30;75.40;;;;;;1904230;75;21090;-51
2021/06/29 11:34:10;;;;;;;8.93;4.97;;;27.30;75.40;;;;;;1904459;75;21008;-51
2021/06/29 11:36:45;;;;;;;6.72;5.22;;;27.40;75.20;;;;;;1904395;75;21093;-53
2021/06/29 11:39:18;;;;;;;;;;;27.40;75.40;;;;;;1902919;74;21031;-51
2021/06/29 11:42:07;;;;;;;7.45;5.17;;;27.50;74.50;;;;;;1904481;75;20133;-52
2021/06/29 11:44:39;;;;;;;7.03;5.22;;;27.50;74.70;;;;;;1904426;75;21110;-54
2021/06/29 11:47:16;;;;;;;7.87;5.97;;;27.60;74.60;;;;;;1904249;75;21071;-53
2021/06/29 11:49:54;;;;;;;6.20;5.25;;;27.50;74.90;;;;;;1904567;75;21082;-53
2021/06/29 11:52:36;;;;;;;7.87;5.65;;;27.50;75.50;;;;;;1904833;75;20996;-54
2021/06/29 11:55:17;;;;;;;6.92;5.78;;;27.60;75.90;;;;;;1904998;75;21027;-54
2021/06/29 11:58:00;;;;;;;5.37;4.72;;;27.80;76.10;;;;;;1904639;74;21090;-54
2021/06/29 12:00:35;;;;;;;7.92;5.50;;;27.90;75.20;;;;;;1903896;74;21079;-55
2021/06/29 12:03:10;;;;;;;6.05;4.60;;;27.90;74.50;;;;;;1905188;75;21456;-54
2021/06/29 12:05:40;;;;;;;6.60;4.97;;;28.00;74.30;;;;;;1905092;75;21015;-54
2021/06/29 12:08:11;;;;;;;7.35;5.17;;;28.10;74.20;;;;;;1904956;75;21535;-54
2021/06/29 12:10:49;;;;;;;5.90;5.03;;;28.10;73.60;;;;;;1904897;75;21102;-55
2021/06/29 12:13:25;;;;;;;6.53;5.28;;;28.10;73.40;;;;;;1905120;75;20999;-55
2021/06/29 12:15:55;;;;;;;6.72;5.05;;;28.10;73.50;;;;;;1903814;74;21095;-54
2021/06/29 12:18:36;;;;;;;6.03;4.80;;;28.00;72.30;;;;;;1904158;74;21129;-55
2021/06/29 12:21:03;;;;;;;6.85;5.00;;;28.00;72.40;;;;;;1903477;74;21531;-55
2021/06/29 12:23:34;;;;;;;6.22;5.25;;;27.90;72.90;;;;;;1905172;75;21035;-56
2021/06/29 12:26:06;;;;;;;6.45;5.08;;;28.00;72.60;;;;;;1905134;75;21016;-57
2021/06/29 12:28:40;;;;;;;7.20;4.85;;;28.20;71.70;;;;;;1904915;75;21082;-56
2021/06/29 12:31:12;;;;;;;9.70;5.60;;;28.30;71.00;;;;;;1905008;75;21082;-56
2021/06/29 12:33:49;;;;;;;5.17;4.50;;;28.30;69.30;;;;;;1904419;74;21488;-56
2021/06/29 12:36:16;;;;;;;4.95;4.55;;;28.30;69.70;;;;;;1902813;74;21082;-56
2021/06/29 12:38:51;;;;;;;9.88;5.17;;;28.20;68.70;;;;;;1905231;74;21172;-56
2021/06/29 12:41:24;;;;;;;7.20;4.33;;;28.20;69.50;;;;;;1905306;75;21024;-56
2021/06/29 12:44:01;;;;;;;5.47;4.70;;;28.20;70.10;;;;;;1905309;75;21035;-56
2021/06/29 12:46:39;;;;;;;6.62;5.03;;;28.30;70.20;;;;;;1905296;75;21066;-56
2021/06/29 12:49:15;;;;;;;9.88;5.08;;;28.30;70.30;;;;;;1905227;75;21085;-56
2021/06/29 12:51:58;;;;;;;6.83;5.10;;;28.40;70.10;;;;;;1905283;75;21461;-56
2021/06/29 12:54:30;;;;;;;5.33;4.65;;;28.60;69.50;;;;;;1905218;74;21020;-56
2021/06/29 12:57:01;;;;;;;7.67;4.47;;;28.80;68.90;;;;;;1905198;75;21023;-56
2021/06/29 12:59:39;;;;;;;11.43;5.50;;;28.90;68.00;;;;;;1905171;75;21039;-56
2021/06/29 13:02:13;;;;;;;7.20;5.33;;;29.10;67.00;;;;;;1905247;75;21015;-56
2021/06/29 13:04:45;;;;;;;6.85;4.90;;;29.10;65.70;;;;;;1905191;75;20992;-56
2021/06/29 13:07:16;;;;;;;5.67;3.52;;;29.20;65.60;;;;;;1905160;75;21019;-56
2021/06/29 13:09:46;;;;;;;6.75;3.95;;;29.20;62.50;;;;;;1905177;75;21104;-56
2021/06/29 13:12:21;;;;;;;7.62;4.12;;;29.10;59.00;;;;;;1911946;74;21117;-56